sensor_id;sensor_type;location;lat;lon;timestamp;temperature;humidity
7196;DHT22;3639;51.308;5.624;2023-05-10T00:00:52;13.20;99.90
7196;DHT22;3639;51.308;5.624;2023-05-10T00:03:18;13.20;99.90
7196;DHT22;3639;51.308;5.624;2023-05-10T00:05:43;13.30;99.90
7196;DHT22;3639;51.308;5.624;2023-05-10T00:08:09;13.30;99.90
7196;DHT22;3639;51.308;5.624;2023-05-10T00:10:35;13.20;99.90
7196;DHT22;3639;51.308;5.624;2023-05-10T00:13:01;13.20;99.90
7196;DHT22;3639;51.308;5.624;2023-05-10T00:15:27;13.20;99.90
7196;DHT22;3639;51.308;5.624;2023-05-10T00:17:52;13.30;99.90
7196;DHT22;3639;51.308;5.624;2023-05-10T00:20:18;13.30;99.90
7196;DHT22;3639;51.308;5.624;2023-05-10T00:22:43;13.30;99.90
7196;DHT22;3639;51.308;5.624;2023-05-10T00:25:09;13.20;99.90
7196;DHT22;3639;51.308;5.624;2023-05-10T00:27:35;13.30;99.90
7196;DHT22;3639;51.308;5.624;2023-05-10T00:30:01;13.30;99.90
7196;DHT22;3639;51.308;5.624;2023-05-10T00:32:26;13.20;99.90
7196;DHT22;3639;51.308;5.624;2023-05-10T00:34:52;13.20;99.90
7196;DHT22;3639;51.308;5.624;2023-05-10T00:37:17;13.20;99.90
7196;DHT22;3639;51.308;5.624;2023-05-10T00:39:43;13.20;99.90
7196;DHT22;3639;51.308;5.624;2023-05-10T00:42:09;13.20;99.90
7196;DHT22;3639;51.308;5.624;2023-05-10T00:44:34;13.20;99.90
7196;DHT22;3639;51.308;5.624;2023-05-10T00:47:00;13.10;99.90
7196;DHT22;3639;51.308;5.624;2023-05-10T00:49:26;13.10;99.90
7196;DHT22;3639;51.308;5.624;2023-05-10T00:51:51;13.20;99.90
7196;DHT22;3639;51.308;5.624;2023-05-10T00:54:17;13.10;99.90
7196;DHT22;3639;51.308;5.624;2023-05-10T00:56:43;13.10;99.90
7196;DHT22;3639;51.308;5.624;2023-05-10T00:59:17;13.10;99.90
7196;DHT22;3639;51.308;5.624;2023-05-10T01:01:47;13.10;99.90
7196;DHT22;3639;51.308;5.624;2023-05-10T01:04:13;13.10;99.90
7196;DHT22;3639;51.308;5.624;2023-05-10T01:06:40;13.00;99.90
7196;DHT22;3639;51.308;5.624;2023-05-10T01:09:06;13.00;99.90
7196;DHT22;3639;51.308;5.624;2023-05-10T01:11:36;13.10;99.90
7196;DHT22;3639;51.308;5.624;2023-05-10T01:14:03;13.10;99.90
7196;DHT22;3639;51.308;5.624;2023-05-10T01:16:34;13.10;99.90
7196;DHT22;3639;51.308;5.624;2023-05-10T01:19:00;13.20;99.90
7196;DHT22;3639;51.308;5.624;2023-05-10T01:21:42;13.20;99.90
7196;DHT22;3639;51.308;5.624;2023-05-10T01:40:32;13.30;99.90
7196;DHT22;3639;51.308;5.624;2023-05-10T01:43:04;13.30;99.90
7196;DHT22;3639;51.308;5.624;2023-05-10T01:46:05;13.30;99.90
7196;DHT22;3639;51.308;5.624;2023-05-10T01:48:39;13.30;99.90
7196;DHT22;3639;51.308;5.624;2023-05-10T01:51:06;13.30;99.90
7196;DHT22;3639;51.308;5.624;2023-05-10T01:53:34;13.20;99.90
7196;DHT22;3639;51.308;5.624;2023-05-10T01:56:03;13.20;99.90
7196;DHT22;3639;51.308;5.624;2023-05-10T01:58:33;13.10;99.90
7196;DHT22;3639;51.308;5.624;2023-05-10T02:01:01;13.10;99.90
7196;DHT22;3639;51.308;5.624;2023-05-10T02:03:30;13.00;99.90
7196;DHT22;3639;51.308;5.624;2023-05-10T02:05:57;13.00;99.90
7196;DHT22;3639;51.308;5.624;2023-05-10T02:08:25;13.00;99.90
7196;DHT22;3639;51.308;5.624;2023-05-10T02:10:54;13.10;99.90
7196;DHT22;3639;51.308;5.624;2023-05-10T02:13:21;13.10;99.90
7196;DHT22;3639;51.308;5.624;2023-05-10T02:15:48;13.10;99.90
7196;DHT22;3639;51.308;5.624;2023-05-10T02:18:16;13.00;99.90
7196;DHT22;3639;51.308;5.624;2023-05-10T02:20:45;13.00;99.90
7196;DHT22;3639;51.308;5.624;2023-05-10T02:23:13;13.00;99.90
7196;DHT22;3639;51.308;5.624;2023-05-10T02:25:39;13.10;99.90
7196;DHT22;3639;51.308;5.624;2023-05-10T02:28:06;13.00;99.90
7196;DHT22;3639;51.308;5.624;2023-05-10T02:30:33;12.90;99.90
7196;DHT22;3639;51.308;5.624;2023-05-10T02:33:01;12.90;99.90
7196;DHT22;3639;51.308;5.624;2023-05-10T02:35:29;13.00;99.90
7196;DHT22;3639;51.308;5.624;2023-05-10T02:37:57;13.00;99.90
7196;DHT22;3639;51.308;5.624;2023-05-10T02:40:24;13.00;99.90
7196;DHT22;3639;51.308;5.624;2023-05-10T02:42:52;12.90;99.90
7196;DHT22;3639;51.308;5.624;2023-05-10T02:45:23;13.00;99.90
7196;DHT22;3639;51.308;5.624;2023-05-10T02:47:50;13.00;99.90
7196;DHT22;3639;51.308;5.624;2023-05-10T02:50:15;13.00;99.90
7196;DHT22;3639;51.308;5.624;2023-05-10T02:52:50;13.00;99.90
7196;DHT22;3639;51.308;5.624;2023-05-10T02:55:19;13.00;99.90
7196;DHT22;3639;51.308;5.624;2023-05-10T02:57:56;13.10;99.90
7196;DHT22;3639;51.308;5.624;2023-05-10T03:00:22;13.10;99.90
7196;DHT22;3639;51.308;5.624;2023-05-10T03:02:49;13.10;99.90
7196;DHT22;3639;51.308;5.624;2023-05-10T03:05:16;13.10;99.90
7196;DHT22;3639;51.308;5.624;2023-05-10T03:07:42;13.10;99.90
7196;DHT22;3639;51.308;5.624;2023-05-10T03:10:08;13.10;99.90
7196;DHT22;3639;51.308;5.624;2023-05-10T03:15:24;13.10;99.90
7196;DHT22;3639;51.308;5.624;2023-05-10T03:20:59;13.10;99.90
7196;DHT22;3639;51.308;5.624;2023-05-10T03:23:32;13.10;99.90
7196;DHT22;3639;51.308;5.624;2023-05-10T03:25:59;13.00;99.90
7196;DHT22;3639;51.308;5.624;2023-05-10T03:28:26;13.10;99.90
7196;DHT22;3639;51.308;5.624;2023-05-10T03:30:55;13.10;99.90
7196;DHT22;3639;51.308;5.624;2023-05-10T03:33:21;13.10;99.90
7196;DHT22;3639;51.308;5.624;2023-05-10T03:35:47;13.10;99.90
7196;DHT22;3639;51.308;5.624;2023-05-10T03:38:13;13.00;99.90
7196;DHT22;3639;51.308;5.624;2023-05-10T03:40:39;13.00;99.90
7196;DHT22;3639;51.308;5.624;2023-05-10T03:43:04;13.00;99.90
7196;DHT22;3639;51.308;5.624;2023-05-10T03:45:30;13.10;99.90
7196;DHT22;3639;51.308;5.624;2023-05-10T03:47:57;13.00;99.90
7196;DHT22;3639;51.308;5.624;2023-05-10T03:50:23;13.00;99.90
7196;DHT22;3639;51.308;5.624;2023-05-10T03:52:48;13.10;99.90
7196;DHT22;3639;51.308;5.624;2023-05-10T03:55:14;13.10;99.90
7196;DHT22;3639;51.308;5.624;2023-05-10T03:57:40;13.10;99.90
7196;DHT22;3639;51.308;5.624;2023-05-10T04:00:06;13.10;99.90
7196;DHT22;3639;51.308;5.624;2023-05-10T04:02:32;13.10;99.90
7196;DHT22;3639;51.308;5.624;2023-05-10T04:04:57;13.00;99.90
7196;DHT22;3639;51.308;5.624;2023-05-10T04:07:23;13.10;99.90
7196;DHT22;3639;51.308;5.624;2023-05-10T04:09:49;13.10;99.90
7196;DHT22;3639;51.308;5.624;2023-05-10T04:12:14;13.00;99.90
7196;DHT22;3639;51.308;5.624;2023-05-10T04:14:40;13.10;99.90
7196;DHT22;3639;51.308;5.624;2023-05-10T04:17:06;13.00;99.90
7196;DHT22;3639;51.308;5.624;2023-05-10T04:19:32;13.10;99.90
7196;DHT22;3639;51.308;5.624;2023-05-10T04:21:58;13.10;99.90
7196;DHT22;3639;51.308;5.624;2023-05-10T04:24:24;13.10;99.90
7196;DHT22;3639;51.308;5.624;2023-05-10T04:26:50;13.10;99.90
7196;DHT22;3639;51.308;5.624;2023-05-10T04:29:16;13.10;99.90
7196;DHT22;3639;51.308;5.624;2023-05-10T04:31:41;13.10;99.90
7196;DHT22;3639;51.308;5.624;2023-05-10T04:34:07;13.10;99.90
7196;DHT22;3639;51.308;5.624;2023-05-10T04:36:32;13.10;99.90
7196;DHT22;3639;51.308;5.624;2023-05-10T04:39:01;13.00;99.90
7196;DHT22;3639;51.308;5.624;2023-05-10T04:41:28;13.00;99.90
7196;DHT22;3639;51.308;5.624;2023-05-10T04:43:53;13.10;99.90
7196;DHT22;3639;51.308;5.624;2023-05-10T04:46:19;13.10;99.90
7196;DHT22;3639;51.308;5.624;2023-05-10T04:48:45;13.10;99.90
7196;DHT22;3639;51.308;5.624;2023-05-10T04:51:11;13.20;99.90
7196;DHT22;3639;51.308;5.624;2023-05-10T04:53:36;13.20;99.90
7196;DHT22;3639;51.308;5.624;2023-05-10T04:56:02;13.20;99.90
7196;DHT22;3639;51.308;5.624;2023-05-10T04:58:27;13.20;99.90
7196;DHT22;3639;51.308;5.624;2023-05-10T05:00:53;13.20;99.90
7196;DHT22;3639;51.308;5.624;2023-05-10T05:03:18;13.20;99.90
7196;DHT22;3639;51.308;5.624;2023-05-10T05:05:44;13.30;99.90
7196;DHT22;3639;51.308;5.624;2023-05-10T05:08:10;13.30;99.90
7196;DHT22;3639;51.308;5.624;2023-05-10T05:10:35;13.30;99.90
7196;DHT22;3639;51.308;5.624;2023-05-10T05:13:01;13.40;99.90
7196;DHT22;3639;51.308;5.624;2023-05-10T05:15:26;13.30;99.90
7196;DHT22;3639;51.308;5.624;2023-05-10T05:17:52;13.30;99.90
7196;DHT22;3639;51.308;5.624;2023-05-10T05:20:18;13.30;99.90
7196;DHT22;3639;51.308;5.624;2023-05-10T05:22:44;13.30;99.90
7196;DHT22;3639;51.308;5.624;2023-05-10T05:25:10;13.30;99.90
7196;DHT22;3639;51.308;5.624;2023-05-10T05:27:36;13.30;99.90
7196;DHT22;3639;51.308;5.624;2023-05-10T05:30:02;13.40;99.90
7196;DHT22;3639;51.308;5.624;2023-05-10T05:32:28;13.40;99.90
7196;DHT22;3639;51.308;5.624;2023-05-10T05:34:54;13.40;99.90
7196;DHT22;3639;51.308;5.624;2023-05-10T05:37:20;13.40;99.90
7196;DHT22;3639;51.308;5.624;2023-05-10T05:39:47;13.40;99.90
7196;DHT22;3639;51.308;5.624;2023-05-10T05:42:13;13.40;99.90
7196;DHT22;3639;51.308;5.624;2023-05-10T05:44:39;13.40;99.90
7196;DHT22;3639;51.308;5.624;2023-05-10T05:47:05;13.50;99.90
7196;DHT22;3639;51.308;5.624;2023-05-10T05:49:31;13.50;99.90
7196;DHT22;3639;51.308;5.624;2023-05-10T05:52:01;13.50;99.90
7196;DHT22;3639;51.308;5.624;2023-05-10T05:54:27;13.50;99.90
7196;DHT22;3639;51.308;5.624;2023-05-10T05:56:59;13.50;99.90
7196;DHT22;3639;51.308;5.624;2023-05-10T05:59:26;13.60;99.90
7196;DHT22;3639;51.308;5.624;2023-05-10T06:01:51;13.50;99.90
7196;DHT22;3639;51.308;5.624;2023-05-10T06:04:18;13.50;99.90
7196;DHT22;3639;51.308;5.624;2023-05-10T06:06:44;13.50;99.90
7196;DHT22;3639;51.308;5.624;2023-05-10T06:09:10;13.50;99.90
7196;DHT22;3639;51.308;5.624;2023-05-10T06:11:36;13.50;99.90
7196;DHT22;3639;51.308;5.624;2023-05-10T06:14:02;13.40;99.90
7196;DHT22;3639;51.308;5.624;2023-05-10T06:16:30;13.40;99.90
7196;DHT22;3639;51.308;5.624;2023-05-10T06:18:56;13.40;99.90
7196;DHT22;3639;51.308;5.624;2023-05-10T06:21:21;13.40;99.90
7196;DHT22;3639;51.308;5.624;2023-05-10T06:23:47;13.40;99.90
7196;DHT22;3639;51.308;5.624;2023-05-10T06:26:12;13.40;99.90
7196;DHT22;3639;51.308;5.624;2023-05-10T06:28:39;13.40;99.90
7196;DHT22;3639;51.308;5.624;2023-05-10T06:31:05;13.40;99.90
7196;DHT22;3639;51.308;5.624;2023-05-10T06:33:31;13.40;99.90
7196;DHT22;3639;51.308;5.624;2023-05-10T06:35:57;13.40;99.90
7196;DHT22;3639;51.308;5.624;2023-05-10T06:38:23;13.40;99.90
7196;DHT22;3639;51.308;5.624;2023-05-10T06:40:48;13.50;99.90
7196;DHT22;3639;51.308;5.624;2023-05-10T06:43:14;13.60;99.90
7196;DHT22;3639;51.308;5.624;2023-05-10T06:45:40;13.70;99.90
7196;DHT22;3639;51.308;5.624;2023-05-10T06:48:06;13.70;99.90
7196;DHT22;3639;51.308;5.624;2023-05-10T06:50:32;13.80;99.90
7196;DHT22;3639;51.308;5.624;2023-05-10T06:52:58;13.80;99.90
7196;DHT22;3639;51.308;5.624;2023-05-10T06:55:24;13.90;99.90
7196;DHT22;3639;51.308;5.624;2023-05-10T06:57:50;13.90;99.90
7196;DHT22;3639;51.308;5.624;2023-05-10T07:00:16;14.00;99.90
7196;DHT22;3639;51.308;5.624;2023-05-10T07:02:42;14.00;99.90
7196;DHT22;3639;51.308;5.624;2023-05-10T07:05:08;14.10;99.90
7196;DHT22;3639;51.308;5.624;2023-05-10T07:07:33;14.20;99.90
7196;DHT22;3639;51.308;5.624;2023-05-10T07:09:59;14.30;99.90
7196;DHT22;3639;51.308;5.624;2023-05-10T07:12:25;14.40;99.90
7196;DHT22;3639;51.308;5.624;2023-05-10T07:14:51;14.50;99.90
7196;DHT22;3639;51.308;5.624;2023-05-10T07:17:17;14.70;99.90
7196;DHT22;3639;51.308;5.624;2023-05-10T07:19:42;14.80;99.90
7196;DHT22;3639;51.308;5.624;2023-05-10T07:22:08;14.90;99.90
7196;DHT22;3639;51.308;5.624;2023-05-10T07:24:35;14.80;99.90
7196;DHT22;3639;51.308;5.624;2023-05-10T07:27:00;14.80;99.90
7196;DHT22;3639;51.308;5.624;2023-05-10T07:29:26;14.80;99.90
7196;DHT22;3639;51.308;5.624;2023-05-10T07:31:52;14.80;99.90
7196;DHT22;3639;51.308;5.624;2023-05-10T07:34:18;14.70;99.90
7196;DHT22;3639;51.308;5.624;2023-05-10T07:36:43;14.60;99.90
7196;DHT22;3639;51.308;5.624;2023-05-10T07:39:09;14.60;99.90
7196;DHT22;3639;51.308;5.624;2023-05-10T07:41:35;14.60;99.90
7196;DHT22;3639;51.308;5.624;2023-05-10T07:44:00;14.70;99.90
7196;DHT22;3639;51.308;5.624;2023-05-10T07:46:26;14.70;99.90
7196;DHT22;3639;51.308;5.624;2023-05-10T07:48:51;14.70;99.90
7196;DHT22;3639;51.308;5.624;2023-05-10T07:51:17;14.80;99.90
7196;DHT22;3639;51.308;5.624;2023-05-10T07:53:43;14.80;99.90
7196;DHT22;3639;51.308;5.624;2023-05-10T07:56:25;14.70;99.90
7196;DHT22;3639;51.308;5.624;2023-05-10T07:58:53;14.80;99.90
7196;DHT22;3639;51.308;5.624;2023-05-10T08:01:19;14.80;99.90
7196;DHT22;3639;51.308;5.624;2023-05-10T08:03:45;14.70;99.90
7196;DHT22;3639;51.308;5.624;2023-05-10T08:06:10;14.70;99.90
7196;DHT22;3639;51.308;5.624;2023-05-10T08:08:36;14.60;99.90
7196;DHT22;3639;51.308;5.624;2023-05-10T08:11:02;14.50;99.90
7196;DHT22;3639;51.308;5.624;2023-05-10T08:13:27;14.40;99.90
7196;DHT22;3639;51.308;5.624;2023-05-10T08:15:53;14.30;99.90
7196;DHT22;3639;51.308;5.624;2023-05-10T08:18:19;14.40;99.90
7196;DHT22;3639;51.308;5.624;2023-05-10T08:20:45;14.40;99.90
7196;DHT22;3639;51.308;5.624;2023-05-10T08:23:12;14.40;99.90
7196;DHT22;3639;51.308;5.624;2023-05-10T08:25:38;14.50;99.90
7196;DHT22;3639;51.308;5.624;2023-05-10T08:28:04;14.50;99.90
7196;DHT22;3639;51.308;5.624;2023-05-10T08:30:29;14.50;99.90
7196;DHT22;3639;51.308;5.624;2023-05-10T08:32:55;14.50;99.90
7196;DHT22;3639;51.308;5.624;2023-05-10T08:35:20;14.50;99.90
7196;DHT22;3639;51.308;5.624;2023-05-10T08:37:46;14.60;99.90
7196;DHT22;3639;51.308;5.624;2023-05-10T08:40:12;14.50;99.90
7196;DHT22;3639;51.308;5.624;2023-05-10T08:42:41;14.50;99.90
7196;DHT22;3639;51.308;5.624;2023-05-10T08:45:10;14.60;99.90
7196;DHT22;3639;51.308;5.624;2023-05-10T08:47:39;14.70;99.90
7196;DHT22;3639;51.308;5.624;2023-05-10T08:50:06;14.70;99.90
7196;DHT22;3639;51.308;5.624;2023-05-10T08:52:33;14.80;99.90
7196;DHT22;3639;51.308;5.624;2023-05-10T08:55:02;14.80;99.90
7196;DHT22;3639;51.308;5.624;2023-05-10T08:57:28;14.70;99.90
7196;DHT22;3639;51.308;5.624;2023-05-10T08:59:54;14.70;99.90
7196;DHT22;3639;51.308;5.624;2023-05-10T09:02:20;14.60;99.90
7196;DHT22;3639;51.308;5.624;2023-05-10T09:04:46;14.40;99.90
7196;DHT22;3639;51.308;5.624;2023-05-10T09:07:12;14.40;99.90
7196;DHT22;3639;51.308;5.624;2023-05-10T09:09:38;14.30;99.90
7196;DHT22;3639;51.308;5.624;2023-05-10T09:12:04;14.30;99.90
7196;DHT22;3639;51.308;5.624;2023-05-10T09:14:30;14.30;99.90
7196;DHT22;3639;51.308;5.624;2023-05-10T09:16:58;14.30;99.90
7196;DHT22;3639;51.308;5.624;2023-05-10T09:19:23;14.30;99.90
7196;DHT22;3639;51.308;5.624;2023-05-10T09:21:49;14.40;99.90
7196;DHT22;3639;51.308;5.624;2023-05-10T09:24:15;14.40;99.90
7196;DHT22;3639;51.308;5.624;2023-05-10T09:26:48;14.60;99.90
7196;DHT22;3639;51.308;5.624;2023-05-10T09:29:14;14.80;99.90
7196;DHT22;3639;51.308;5.624;2023-05-10T09:31:45;15.00;99.90
7196;DHT22;3639;51.308;5.624;2023-05-10T09:34:15;15.20;99.90
7196;DHT22;3639;51.308;5.624;2023-05-10T09:36:56;15.40;99.90
7196;DHT22;3639;51.308;5.624;2023-05-10T09:39:36;15.50;99.90
7196;DHT22;3639;51.308;5.624;2023-05-10T09:42:06;15.60;99.90
7196;DHT22;3639;51.308;5.624;2023-05-10T09:44:33;15.60;99.90
7196;DHT22;3639;51.308;5.624;2023-05-10T09:47:00;15.60;99.90
7196;DHT22;3639;51.308;5.624;2023-05-10T09:49:26;15.70;99.90
7196;DHT22;3639;51.308;5.624;2023-05-10T09:52:05;15.80;99.90
7196;DHT22;3639;51.308;5.624;2023-05-10T09:54:32;16.00;99.90
7196;DHT22;3639;51.308;5.624;2023-05-10T09:56:58;16.10;99.90
7196;DHT22;3639;51.308;5.624;2023-05-10T09:59:28;16.40;99.90
7196;DHT22;3639;51.308;5.624;2023-05-10T10:01:58;16.70;99.90
7196;DHT22;3639;51.308;5.624;2023-05-10T10:04:25;16.80;99.90
7196;DHT22;3639;51.308;5.624;2023-05-10T10:07:01;17.10;99.90
7196;DHT22;3639;51.308;5.624;2023-05-10T10:09:28;17.20;99.90
7196;DHT22;3639;51.308;5.624;2023-05-10T10:11:54;17.20;99.90
7196;DHT22;3639;51.308;5.624;2023-05-10T10:14:20;17.20;99.90
7196;DHT22;3639;51.308;5.624;2023-05-10T10:16:47;17.20;99.90
7196;DHT22;3639;51.308;5.624;2023-05-10T10:19:12;17.20;99.90
7196;DHT22;3639;51.308;5.624;2023-05-10T10:21:38;17.20;99.90
7196;DHT22;3639;51.308;5.624;2023-05-10T10:24:04;17.20;99.90
7196;DHT22;3639;51.308;5.624;2023-05-10T10:26:33;17.10;99.90
7196;DHT22;3639;51.308;5.624;2023-05-10T10:29:47;16.90;99.90
7196;DHT22;3639;51.308;5.624;2023-05-10T10:32:33;16.80;99.90
7196;DHT22;3639;51.308;5.624;2023-05-10T10:35:03;16.80;99.90
7196;DHT22;3639;51.308;5.624;2023-05-10T10:37:45;16.90;99.90
7196;DHT22;3639;51.308;5.624;2023-05-10T10:40:24;16.90;99.90
7196;DHT22;3639;51.308;5.624;2023-05-10T10:42:51;17.10;99.90
7196;DHT22;3639;51.308;5.624;2023-05-10T10:45:17;17.20;99.90
7196;DHT22;3639;51.308;5.624;2023-05-10T10:47:44;17.40;99.90
7196;DHT22;3639;51.308;5.624;2023-05-10T10:50:10;17.60;99.90
7196;DHT22;3639;51.308;5.624;2023-05-10T10:52:41;17.90;99.90
7196;DHT22;3639;51.308;5.624;2023-05-10T10:55:08;18.20;99.90
7196;DHT22;3639;51.308;5.624;2023-05-10T11:07:56;17.80;99.90
7196;DHT22;3639;51.308;5.624;2023-05-10T11:10:22;17.90;99.90
7196;DHT22;3639;51.308;5.624;2023-05-10T11:12:53;18.00;99.90
7196;DHT22;3639;51.308;5.624;2023-05-10T11:15:19;18.00;99.90
7196;DHT22;3639;51.308;5.624;2023-05-10T11:17:47;17.80;99.90
7196;DHT22;3639;51.308;5.624;2023-05-10T11:20:17;17.70;99.90
7196;DHT22;3639;51.308;5.624;2023-05-10T11:22:54;17.70;99.90
7196;DHT22;3639;51.308;5.624;2023-05-10T11:25:23;17.90;99.90
7196;DHT22;3639;51.308;5.624;2023-05-10T11:27:51;17.80;99.90
7196;DHT22;3639;51.308;5.624;2023-05-10T11:30:17;17.90;99.90
7196;DHT22;3639;51.308;5.624;2023-05-10T11:32:43;18.00;99.90
7196;DHT22;3639;51.308;5.624;2023-05-10T11:35:10;18.10;99.90
7196;DHT22;3639;51.308;5.624;2023-05-10T11:37:38;18.20;99.90
7196;DHT22;3639;51.308;5.624;2023-05-10T11:40:07;18.30;99.90
7196;DHT22;3639;51.308;5.624;2023-05-10T11:42:39;18.40;99.90
7196;DHT22;3639;51.308;5.624;2023-05-10T11:45:05;18.40;99.90
7196;DHT22;3639;51.308;5.624;2023-05-10T11:47:31;18.40;99.90
7196;DHT22;3639;51.308;5.624;2023-05-10T11:49:57;18.40;99.90
7196;DHT22;3639;51.308;5.624;2023-05-10T11:52:23;18.30;99.90
7196;DHT22;3639;51.308;5.624;2023-05-10T11:54:53;18.20;99.90
7196;DHT22;3639;51.308;5.624;2023-05-10T11:57:19;18.20;99.90
7196;DHT22;3639;51.308;5.624;2023-05-10T11:59:53;18.00;99.90
7196;DHT22;3639;51.308;5.624;2023-05-10T12:02:19;18.00;99.90
7196;DHT22;3639;51.308;5.624;2023-05-10T12:04:44;18.00;99.90
7196;DHT22;3639;51.308;5.624;2023-05-10T12:07:10;18.10;99.90
7196;DHT22;3639;51.308;5.624;2023-05-10T12:09:36;18.30;99.90
7196;DHT22;3639;51.308;5.624;2023-05-10T12:12:02;18.30;99.90
7196;DHT22;3639;51.308;5.624;2023-05-10T12:14:28;18.30;99.90
7196;DHT22;3639;51.308;5.624;2023-05-10T12:16:54;18.30;99.90
7196;DHT22;3639;51.308;5.624;2023-05-10T12:19:22;18.30;99.90
7196;DHT22;3639;51.308;5.624;2023-05-10T12:21:48;18.30;99.90
7196;DHT22;3639;51.308;5.624;2023-05-10T12:24:13;18.40;99.90
7196;DHT22;3639;51.308;5.624;2023-05-10T12:26:43;18.60;99.90
7196;DHT22;3639;51.308;5.624;2023-05-10T12:29:18;18.80;99.90
7196;DHT22;3639;51.308;5.624;2023-05-10T12:31:55;18.90;99.90
7196;DHT22;3639;51.308;5.624;2023-05-10T12:34:30;19.10;99.90
7196;DHT22;3639;51.308;5.624;2023-05-10T12:36:56;19.10;99.90
7196;DHT22;3639;51.308;5.624;2023-05-10T12:39:23;19.20;99.90
7196;DHT22;3639;51.308;5.624;2023-05-10T12:41:48;19.10;99.90
7196;DHT22;3639;51.308;5.624;2023-05-10T12:44:14;19.30;99.90
7196;DHT22;3639;51.308;5.624;2023-05-10T12:46:39;19.60;99.90
7196;DHT22;3639;51.308;5.624;2023-05-10T12:49:05;19.70;99.90
7196;DHT22;3639;51.308;5.624;2023-05-10T12:51:30;19.80;99.90
7196;DHT22;3639;51.308;5.624;2023-05-10T12:53:56;19.80;99.90
7196;DHT22;3639;51.308;5.624;2023-05-10T12:56:22;19.80;99.90
7196;DHT22;3639;51.308;5.624;2023-05-10T12:58:47;19.60;99.90
7196;DHT22;3639;51.308;5.624;2023-05-10T13:01:14;19.50;99.90
7196;DHT22;3639;51.308;5.624;2023-05-10T13:03:39;19.60;99.90
7196;DHT22;3639;51.308;5.624;2023-05-10T13:06:05;19.50;99.90
7196;DHT22;3639;51.308;5.624;2023-05-10T13:08:31;19.30;99.90
7196;DHT22;3639;51.308;5.624;2023-05-10T13:10:59;19.10;99.90
7196;DHT22;3639;51.308;5.624;2023-05-10T13:13:25;19.00;99.90
7196;DHT22;3639;51.308;5.624;2023-05-10T13:15:51;18.70;99.90
7196;DHT22;3639;51.308;5.624;2023-05-10T13:18:17;18.50;99.90
7196;DHT22;3639;51.308;5.624;2023-05-10T13:20:42;18.40;99.90
7196;DHT22;3639;51.308;5.624;2023-05-10T13:23:09;18.20;99.90
7196;DHT22;3639;51.308;5.624;2023-05-10T13:25:35;18.10;99.90
7196;DHT22;3639;51.308;5.624;2023-05-10T13:28:01;17.80;99.90
7196;DHT22;3639;51.308;5.624;2023-05-10T13:30:27;17.60;99.90
7196;DHT22;3639;51.308;5.624;2023-05-10T13:32:54;17.30;99.90
7196;DHT22;3639;51.308;5.624;2023-05-10T13:35:20;17.10;99.90
7196;DHT22;3639;51.308;5.624;2023-05-10T13:37:45;16.90;99.90
7196;DHT22;3639;51.308;5.624;2023-05-10T13:40:11;16.80;99.90
7196;DHT22;3639;51.308;5.624;2023-05-10T13:42:36;16.80;99.90
7196;DHT22;3639;51.308;5.624;2023-05-10T13:45:03;16.70;99.90
7196;DHT22;3639;51.308;5.624;2023-05-10T13:47:28;16.70;99.90
7196;DHT22;3639;51.308;5.624;2023-05-10T13:49:54;16.80;99.90
7196;DHT22;3639;51.308;5.624;2023-05-10T13:52:19;16.80;99.90
7196;DHT22;3639;51.308;5.624;2023-05-10T13:54:45;16.90;99.90
7196;DHT22;3639;51.308;5.624;2023-05-10T13:57:11;17.10;99.90
7196;DHT22;3639;51.308;5.624;2023-05-10T13:59:39;17.20;99.90
7196;DHT22;3639;51.308;5.624;2023-05-10T14:02:04;17.20;99.90
7196;DHT22;3639;51.308;5.624;2023-05-10T14:04:30;17.30;99.90
7196;DHT22;3639;51.308;5.624;2023-05-10T14:06:56;17.40;99.90
7196;DHT22;3639;51.308;5.624;2023-05-10T14:09:22;17.40;99.90
7196;DHT22;3639;51.308;5.624;2023-05-10T14:11:47;17.40;99.90
7196;DHT22;3639;51.308;5.624;2023-05-10T14:14:13;17.40;99.90
7196;DHT22;3639;51.308;5.624;2023-05-10T14:16:42;17.30;99.90
7196;DHT22;3639;51.308;5.624;2023-05-10T14:19:08;17.10;99.90
7196;DHT22;3639;51.308;5.624;2023-05-10T14:21:34;16.90;99.90
7196;DHT22;3639;51.308;5.624;2023-05-10T14:24:00;16.70;99.90
7196;DHT22;3639;51.308;5.624;2023-05-10T14:26:25;16.50;99.90
7196;DHT22;3639;51.308;5.624;2023-05-10T14:28:51;16.30;99.90
7196;DHT22;3639;51.308;5.624;2023-05-10T14:31:17;16.10;99.90
7196;DHT22;3639;51.308;5.624;2023-05-10T14:33:44;16.00;99.90
7196;DHT22;3639;51.308;5.624;2023-05-10T14:36:10;15.90;99.90
7196;DHT22;3639;51.308;5.624;2023-05-10T14:38:36;15.70;99.90
7196;DHT22;3639;51.308;5.624;2023-05-10T14:41:01;15.50;99.90
7196;DHT22;3639;51.308;5.624;2023-05-10T14:43:27;15.50;99.90
7196;DHT22;3639;51.308;5.624;2023-05-10T14:45:53;15.50;99.90
7196;DHT22;3639;51.308;5.624;2023-05-10T14:48:19;15.50;99.90
7196;DHT22;3639;51.308;5.624;2023-05-10T14:50:45;15.50;99.90
7196;DHT22;3639;51.308;5.624;2023-05-10T14:53:11;15.40;99.90
7196;DHT22;3639;51.308;5.624;2023-05-10T14:55:37;15.30;99.90
7196;DHT22;3639;51.308;5.624;2023-05-10T14:58:03;15.30;99.90
7196;DHT22;3639;51.308;5.624;2023-05-10T15:00:29;15.20;99.90
7196;DHT22;3639;51.308;5.624;2023-05-10T15:02:55;15.20;99.90
7196;DHT22;3639;51.308;5.624;2023-05-10T15:05:21;15.20;99.90
7196;DHT22;3639;51.308;5.624;2023-05-10T15:07:46;15.20;99.90
7196;DHT22;3639;51.308;5.624;2023-05-10T15:10:12;15.30;99.90
7196;DHT22;3639;51.308;5.624;2023-05-10T15:12:38;15.40;99.90
7196;DHT22;3639;51.308;5.624;2023-05-10T15:15:04;15.60;99.90
7196;DHT22;3639;51.308;5.624;2023-05-10T15:17:30;15.70;99.90
7196;DHT22;3639;51.308;5.624;2023-05-10T15:19:56;15.90;99.90
7196;DHT22;3639;51.308;5.624;2023-05-10T15:22:22;16.00;99.90
7196;DHT22;3639;51.308;5.624;2023-05-10T15:24:47;16.00;99.90
7196;DHT22;3639;51.308;5.624;2023-05-10T15:27:13;16.10;99.90
7196;DHT22;3639;51.308;5.624;2023-05-10T15:29:39;16.10;99.90
7196;DHT22;3639;51.308;5.624;2023-05-10T15:32:04;16.30;99.90
7196;DHT22;3639;51.308;5.624;2023-05-10T15:34:30;16.40;99.90
7196;DHT22;3639;51.308;5.624;2023-05-10T15:36:56;16.40;99.90
7196;DHT22;3639;51.308;5.624;2023-05-10T15:39:22;16.30;99.90
7196;DHT22;3639;51.308;5.624;2023-05-10T15:41:47;16.20;99.90
7196;DHT22;3639;51.308;5.624;2023-05-10T15:44:14;16.10;99.90
7196;DHT22;3639;51.308;5.624;2023-05-10T15:46:39;15.90;99.90
7196;DHT22;3639;51.308;5.624;2023-05-10T15:49:05;15.80;99.90
7196;DHT22;3639;51.308;5.624;2023-05-10T15:51:31;15.70;99.90
7196;DHT22;3639;51.308;5.624;2023-05-10T15:53:58;15.60;99.90
7196;DHT22;3639;51.308;5.624;2023-05-10T15:56:23;15.50;99.90
7196;DHT22;3639;51.308;5.624;2023-05-10T15:58:49;15.40;99.90
7196;DHT22;3639;51.308;5.624;2023-05-10T16:01:15;15.30;99.90
7196;DHT22;3639;51.308;5.624;2023-05-10T16:03:40;15.30;99.90
7196;DHT22;3639;51.308;5.624;2023-05-10T16:06:07;15.20;99.90
7196;DHT22;3639;51.308;5.624;2023-05-10T16:08:33;15.10;99.90
7196;DHT22;3639;51.308;5.624;2023-05-10T16:10:59;15.00;99.90
7196;DHT22;3639;51.308;5.624;2023-05-10T16:13:25;15.00;99.90
7196;DHT22;3639;51.308;5.624;2023-05-10T16:15:51;14.90;99.90
7196;DHT22;3639;51.308;5.624;2023-05-10T16:18:16;14.90;99.90
7196;DHT22;3639;51.308;5.624;2023-05-10T16:20:43;14.90;99.90
7196;DHT22;3639;51.308;5.624;2023-05-10T16:23:08;14.90;99.90
7196;DHT22;3639;51.308;5.624;2023-05-10T16:25:34;14.90;99.90
7196;DHT22;3639;51.308;5.624;2023-05-10T16:28:00;14.90;99.90
7196;DHT22;3639;51.308;5.624;2023-05-10T16:30:26;14.90;99.90
7196;DHT22;3639;51.308;5.624;2023-05-10T16:32:55;14.90;99.90